createdAt,value
2023-04-18T00:02:29.324Z,101223.78
2023-04-18T00:04:58.198Z,101223.09
2023-04-18T00:07:26.177Z,101212.97
2023-04-18T00:09:54.109Z,101226.41
2023-04-18T00:12:22.702Z,101196.25
2023-04-18T00:14:53.505Z,101208.81
2023-04-18T00:17:21.613Z,101206.47
2023-04-18T00:19:50.043Z,101205.88
2023-04-18T00:22:23.101Z,101210.31
2023-04-18T00:24:52.721Z,101214.56
2023-04-18T00:27:21.013Z,101215.12
2023-04-18T00:29:49.585Z,101205.81
2023-04-18T00:32:18.349Z,101202.50
2023-04-18T00:37:32.817Z,101209.87
2023-04-18T00:40:00.802Z,101214.47
2023-04-18T00:42:29.705Z,101213.94
2023-04-18T00:44:58.054Z,101217.50
2023-04-18T00:47:26.364Z,101215.81
2023-04-18T00:49:55.263Z,101209.84
2023-04-18T00:52:27.600Z,101206.41
2023-04-18T00:54:56.017Z,101209.94
2023-04-18T00:57:25.048Z,101208.62
2023-04-18T00:59:53.099Z,101188.81
2023-04-18T01:02:21.361Z,101199.41
2023-04-18T01:04:49.789Z,101184.56
2023-04-18T01:07:17.809Z,101208.81
2023-04-18T01:09:46.079Z,101210.34
2023-04-18T01:12:14.407Z,101202.06
2023-04-18T01:14:43.703Z,101206.34
2023-04-18T01:17:13.632Z,101202.91
2023-04-18T01:19:42.088Z,101202.06
2023-04-18T01:22:13.723Z,101195.63
2023-04-18T01:24:42.550Z,101200.44
2023-04-18T01:27:15.178Z,101199.84
2023-04-18T01:29:43.605Z,101181.75
2023-04-18T01:32:11.572Z,101188.38
2023-04-18T01:34:39.390Z,101192.56
2023-04-18T01:37:07.715Z,101197.81
2023-04-18T01:39:35.605Z,101192.69
2023-04-18T01:42:03.577Z,101191.62
2023-04-18T01:44:31.840Z,101204.78
2023-04-18T01:46:59.748Z,101197.53
2023-04-18T01:49:27.717Z,101193.06
2023-04-18T01:51:56.020Z,101191.44
2023-04-18T01:54:24.021Z,101192.59
2023-04-18T01:56:53.590Z,101188.03
2023-04-18T01:59:21.864Z,101187.16
2023-04-18T02:01:49.802Z,101182.06
2023-04-18T02:04:18.454Z,101194.03
2023-04-18T02:06:47.205Z,101189.09
2023-04-18T02:09:15.884Z,101196.69
2023-04-18T02:11:44.241Z,101194.75
2023-04-18T02:14:13.060Z,101192.13
2023-04-18T02:16:41.829Z,101202.50
2023-04-18T02:19:09.735Z,101188.47
2023-04-18T02:21:37.677Z,101192.56
2023-04-18T02:24:05.914Z,101193.53
2023-04-18T02:26:33.891Z,101185.81
2023-04-18T02:29:01.810Z,101189.97
2023-04-18T02:31:30.832Z,101189.75
2023-04-18T02:33:58.705Z,101184.50
2023-04-18T02:36:28.462Z,101187.00
2023-04-18T02:38:57.022Z,101181.78
2023-04-18T02:41:25.005Z,101181.88
2023-04-18T02:43:55.508Z,101182.66
2023-04-18T02:46:25.012Z,101184.03
2023-04-18T02:48:53.596Z,101166.78
2023-04-18T02:51:22.499Z,101180.22
2023-04-18T02:53:55.512Z,101171.34
2023-04-18T02:56:23.716Z,101184.31
2023-04-18T02:58:53.305Z,101178.16
2023-04-18T03:01:23.111Z,101180.75
2023-04-18T03:03:51.682Z,101179.91
2023-04-18T03:06:20.621Z,101180.91
2023-04-18T03:08:49.175Z,101178.28
2023-04-18T03:11:17.732Z,101179.09
2023-04-18T03:13:46.341Z,101179.97
2023-04-18T03:16:14.512Z,101179.97
2023-04-18T03:18:43.275Z,101178.03
2023-04-18T03:21:12.170Z,101173.66
2023-04-18T03:23:40.538Z,101182.37
2023-04-18T03:26:09.179Z,101179.59
2023-04-18T03:28:37.908Z,101183.06
2023-04-18T03:31:06.184Z,101181.97
2023-04-18T03:33:35.319Z,101155.44
2023-04-18T03:36:06.503Z,101179.22
2023-04-18T03:38:34.520Z,101191.22
2023-04-18T03:41:03.596Z,101194.78
2023-04-18T03:43:32.780Z,101186.72
2023-04-18T03:46:00.831Z,101181.44
2023-04-18T03:48:30.006Z,101187.84
2023-04-18T03:51:00.077Z,101189.13
2023-04-18T03:53:28.156Z,101181.09
2023-04-18T03:55:56.986Z,101174.91
2023-04-18T03:58:26.655Z,101184.34
2023-04-18T04:00:54.838Z,101193.81
2023-04-18T04:03:23.125Z,101195.81
2023-04-18T04:05:51.175Z,101186.72
2023-04-18T04:08:19.214Z,101187.03
2023-04-18T04:10:47.539Z,101184.81
2023-04-18T04:13:15.522Z,101189.09
2023-04-18T04:15:44.044Z,101183.66
2023-04-18T04:18:12.292Z,101177.50
2023-04-18T04:20:40.494Z,101189.47
2023-04-18T04:23:10.423Z,101189.37
2023-04-18T04:25:39.746Z,101196.81
2023-04-18T04:28:08.650Z,101192.84
2023-04-18T04:30:38.607Z,101176.50
2023-04-18T04:33:07.998Z,101188.09
2023-04-18T04:35:37.227Z,101184.25
2023-04-18T04:38:06.317Z,101199.50
2023-04-18T04:40:38.825Z,101197.72
2023-04-18T04:43:17.756Z,101200.88
2023-04-18T04:45:58.825Z,101205.09
2023-04-18T04:48:30.456Z,101201.84
2023-04-18T04:53:47.285Z,101216.41
2023-04-18T04:56:16.224Z,101199.03
2023-04-18T04:58:45.800Z,101217.50
2023-04-18T05:01:20.517Z,101212.31
2023-04-18T05:03:52.924Z,101208.91
2023-04-18T05:06:22.865Z,101211.16
2023-04-18T05:08:51.307Z,101209.16
2023-04-18T05:11:19.353Z,101214.94
2023-04-18T05:13:47.651Z,101209.78
2023-04-18T05:16:15.612Z,101211.72
2023-04-18T05:18:43.657Z,101213.66
2023-04-18T05:21:12.010Z,101211.03
2023-04-18T05:23:40.581Z,101212.34
2023-04-18T05:26:11.842Z,101210.31
2023-04-18T05:28:39.790Z,101213.81
2023-04-18T05:31:07.742Z,101204.88
2023-04-18T05:33:36.134Z,101192.13
2023-04-18T05:36:04.190Z,101215.50
2023-04-18T05:38:32.117Z,101217.25
2023-04-18T05:41:00.774Z,101211.50
2023-04-18T05:43:28.829Z,101215.44
2023-04-18T05:45:57.844Z,101220.34
2023-04-18T05:48:26.471Z,101220.44
2023-04-18T05:50:54.443Z,101219.22
2023-04-18T05:53:22.516Z,101213.78
2023-04-18T05:55:50.975Z,101207.63
2023-04-18T05:58:19.945Z,101218.62
2023-04-18T06:00:48.338Z,101215.03
2023-04-18T06:03:17.235Z,101221.03
2023-04-18T06:05:45.929Z,101218.59
2023-04-18T06:08:17.300Z,101220.28
2023-04-18T06:10:45.418Z,101214.16
2023-04-18T06:13:16.638Z,101223.41
2023-04-18T06:15:45.016Z,101219.00
2023-04-18T06:18:12.870Z,101219.91
2023-04-18T06:20:51.411Z,101218.03
2023-04-18T06:23:19.656Z,101211.56
2023-04-18T06:25:47.956Z,101211.88
2023-04-18T06:28:16.374Z,101214.06
2023-04-18T06:30:45.979Z,101212.25
2023-04-18T06:33:15.711Z,101213.19
2023-04-18T06:35:43.609Z,101191.00
2023-04-18T06:38:12.233Z,101204.66
2023-04-18T06:40:40.137Z,101205.41
2023-04-18T06:43:07.963Z,101207.53
2023-04-18T06:45:36.464Z,101200.22
2023-04-18T06:48:04.755Z,101210.16
2023-04-18T06:50:32.654Z,101211.91
2023-04-18T06:53:00.774Z,101214.06
2023-04-18T06:55:29.088Z,101206.75
2023-04-18T06:57:56.924Z,101222.75
2023-04-18T07:00:25.216Z,101208.47
2023-04-18T07:02:53.283Z,101214.91
2023-04-18T07:05:21.537Z,101217.28
2023-04-18T07:07:49.891Z,101212.13
2023-04-18T07:10:17.892Z,101211.09
2023-04-18T07:12:47.901Z,101213.50
2023-04-18T07:15:16.151Z,101215.41
2023-04-18T07:17:44.066Z,101218.12
2023-04-18T07:20:13.804Z,101216.03
2023-04-18T07:22:42.718Z,101213.63
2023-04-18T07:25:10.770Z,101209.66
2023-04-18T07:27:38.734Z,101216.34
2023-04-18T07:30:07.908Z,101204.75
2023-04-18T07:32:36.127Z,101204.97
2023-04-18T07:35:04.725Z,101203.28
2023-04-18T07:37:33.381Z,101216.91
2023-04-18T07:42:46.682Z,101210.84
2023-04-18T07:45:15.780Z,101215.66
2023-04-18T07:47:43.810Z,101207.22
2023-04-18T07:50:12.160Z,101209.53
2023-04-18T07:52:40.120Z,101202.81
2023-04-18T07:55:08.372Z,101199.22
2023-04-18T07:57:36.555Z,101209.94
2023-04-18T08:00:06.741Z,101202.69
2023-04-18T08:02:42.212Z,101206.97
2023-04-18T08:05:11.080Z,101203.00
2023-04-18T08:07:39.118Z,101193.50
2023-04-18T08:10:07.484Z,101200.31
2023-04-18T08:12:36.962Z,101191.56
2023-04-18T08:15:06.058Z,101193.63
2023-04-18T08:17:35.012Z,101188.78
2023-04-18T08:20:08.011Z,101188.63
2023-04-18T08:22:44.075Z,101186.19
2023-04-18T08:25:19.356Z,101173.53
2023-04-18T08:27:47.638Z,101172.44
2023-04-18T08:30:15.725Z,101169.03
2023-04-18T08:32:44.078Z,101167.00
2023-04-18T08:35:12.071Z,101167.50
2023-04-18T08:37:40.122Z,101168.78
2023-04-18T08:40:08.872Z,101160.62
2023-04-18T08:42:38.921Z,101164.66
2023-04-18T08:45:07.323Z,101159.13
2023-04-18T08:47:36.125Z,101161.91
2023-04-18T08:50:04.371Z,101161.47
2023-04-18T08:52:32.888Z,101162.84
2023-04-18T08:55:03.196Z,101162.78
2023-04-18T08:57:33.503Z,101168.00
2023-04-18T09:00:01.867Z,101160.31
2023-04-18T09:02:43.364Z,101157.88
2023-04-18T09:05:13.710Z,101153.38
2023-04-18T09:07:42.461Z,101159.41
2023-04-18T09:10:10.908Z,101158.81
2023-04-18T09:12:57.120Z,101162.09
2023-04-18T09:15:30.055Z,101151.25
2023-04-18T09:18:01.951Z,101151.94
2023-04-18T09:20:42.727Z,101156.13
2023-04-18T09:23:14.986Z,101147.91
2023-04-18T09:25:45.414Z,101143.66
2023-04-18T09:28:33.818Z,101139.00
2023-04-18T09:31:10.526Z,101146.81
2023-04-18T09:33:43.329Z,101137.06
2023-04-18T09:36:25.258Z,101135.03
2023-04-18T09:38:56.724Z,101138.53
2023-04-18T09:41:25.383Z,101138.50
2023-04-18T09:44:15.039Z,101130.53
2023-04-18T09:46:47.152Z,101131.66
2023-04-18T09:49:17.333Z,101142.19
2023-04-18T09:51:46.502Z,101136.47
2023-04-18T09:54:18.513Z,101134.06
2023-04-18T09:56:50.709Z,101131.34
2023-04-18T09:59:50.586Z,101139.22
2023-04-18T10:02:22.866Z,101129.00
2023-04-18T10:04:54.709Z,101129.16
2023-04-18T10:07:26.105Z,101122.34
2023-04-18T10:09:54.483Z,101126.66
2023-04-18T10:12:22.711Z,101129.34
2023-04-18T10:14:51.270Z,101125.81
2023-04-18T10:17:20.578Z,101127.34
2023-04-18T10:20:05.969Z,101132.88
2023-04-18T10:22:35.774Z,101123.12
2023-04-18T10:25:03.951Z,101127.72
2023-04-18T10:27:50.480Z,101131.81
2023-04-18T10:30:19.023Z,101137.59
2023-04-18T10:32:47.088Z,101141.69
2023-04-18T10:35:14.880Z,101129.88
2023-04-18T10:40:37.688Z,101122.56
2023-04-18T10:43:07.117Z,101122.88
2023-04-18T10:45:36.740Z,101128.50
2023-04-18T10:48:32.928Z,101127.31
2023-04-18T10:51:14.456Z,101134.66
2023-04-18T10:53:52.711Z,101130.34
2023-04-18T10:56:21.989Z,101128.00
2023-04-18T10:58:53.443Z,101130.66
2023-04-18T11:01:32.729Z,101122.13
2023-04-18T11:04:01.617Z,101122.59
2023-04-18T11:06:31.614Z,101127.63
2023-04-18T11:09:12.555Z,101117.75
2023-04-18T11:11:41.896Z,101126.41
2023-04-18T11:14:09.926Z,101122.44
2023-04-18T11:16:38.875Z,101121.34
2023-04-18T11:19:22.320Z,101119.97
2023-04-18T11:21:51.579Z,101125.63
2023-04-18T11:24:26.826Z,101127.75
2023-04-18T11:26:56.455Z,101114.63
2023-04-18T11:29:24.908Z,101106.34
2023-04-18T11:31:56.639Z,101107.06
2023-04-18T11:34:31.014Z,101105.94
2023-04-18T11:36:59.422Z,101113.12
2023-04-18T11:39:27.861Z,101107.34
2023-04-18T11:41:57.479Z,101108.63
2023-04-18T11:44:26.852Z,101110.66
2023-04-18T11:46:55.150Z,101104.56
2023-04-18T11:49:26.581Z,101099.53
2023-04-18T11:51:54.557Z,101095.72
2023-04-18T11:54:42.653Z,101097.87
2023-04-18T11:57:28.401Z,101090.87
2023-04-18T12:00:00.386Z,101101.75
2023-04-18T12:02:39.603Z,101112.53
2023-04-18T12:05:08.583Z,101092.44
2023-04-18T12:07:41.857Z,101094.00
2023-04-18T12:10:26.565Z,101103.16
2023-04-18T12:12:56.089Z,101087.81
2023-04-18T12:15:27.564Z,101090.00
2023-04-18T12:18:03.861Z,101089.44
2023-04-18T12:20:36.854Z,101085.50
2023-04-18T12:23:05.026Z,101093.88
2023-04-18T12:25:33.775Z,101086.62
2023-04-18T12:28:06.571Z,101089.25
2023-04-18T12:30:37.378Z,101091.53
2023-04-18T12:33:05.812Z,101089.12
2023-04-18T12:35:33.964Z,101078.19
2023-04-18T12:40:49.494Z,101079.59
2023-04-18T12:43:17.747Z,101071.69
2023-04-18T12:45:48.541Z,101071.94
2023-04-18T12:48:16.699Z,101082.81
2023-04-18T12:50:44.589Z,101078.06
2023-04-18T12:53:24.262Z,101078.47
2023-04-18T12:58:37.736Z,101075.13
2023-04-18T13:01:05.924Z,101076.75
2023-04-18T13:03:34.578Z,101071.13
2023-04-18T13:06:02.733Z,101068.91
2023-04-18T13:08:43.194Z,101071.03
2023-04-18T13:11:11.072Z,101060.50
2023-04-18T13:13:39.239Z,101066.75
2023-04-18T13:16:19.498Z,101063.19
2023-04-18T13:18:47.636Z,101063.66
2023-04-18T13:21:15.448Z,101059.53
2023-04-18T13:23:43.433Z,101072.50
2023-04-18T13:26:11.880Z,101078.88
2023-04-18T13:28:39.789Z,101070.63
2023-04-18T13:31:07.681Z,101074.09
2023-04-18T13:33:35.847Z,101076.53
2023-04-18T13:36:04.162Z,101071.44
2023-04-18T13:38:44.256Z,101065.44
2023-04-18T13:41:13.253Z,101072.69
2023-04-18T13:43:41.508Z,101067.00
2023-04-18T13:46:12.976Z,101067.16
2023-04-18T13:48:52.891Z,101071.06
2023-04-18T13:51:21.158Z,101074.84
2023-04-18T13:54:01.534Z,101079.62
2023-04-18T13:56:29.930Z,101080.16
2023-04-18T13:58:57.894Z,101083.41
2023-04-18T14:01:25.928Z,101078.94
2023-04-18T14:03:55.054Z,101079.16
2023-04-18T14:06:41.287Z,101076.00
2023-04-18T14:09:21.790Z,101081.75
2023-04-18T14:11:51.406Z,101076.09
2023-04-18T14:14:19.758Z,101077.56
2023-04-18T14:16:47.609Z,101071.75
2023-04-18T14:19:15.715Z,101073.94
2023-04-18T14:21:56.272Z,101074.78
2023-04-18T14:24:24.254Z,101080.25
2023-04-18T14:26:52.546Z,101060.28
2023-04-18T14:29:20.551Z,101064.63
2023-04-18T14:31:48.758Z,101068.06
2023-04-18T14:34:31.133Z,101078.06
2023-04-18T14:37:00.660Z,101072.91
2023-04-18T14:39:29.171Z,101077.09
2023-04-18T14:41:57.891Z,101081.47
2023-04-18T14:44:37.949Z,101092.19
2023-04-18T14:47:18.377Z,101083.25
2023-04-18T14:49:58.823Z,101091.16
2023-04-18T14:52:27.085Z,101081.66
2023-04-18T14:54:54.959Z,101091.53
2023-04-18T14:57:23.262Z,101081.28
2023-04-18T14:59:53.182Z,101087.28
2023-04-18T15:02:46.487Z,101091.34
2023-04-18T15:05:15.825Z,101085.13
2023-04-18T15:07:45.296Z,101097.13
2023-04-18T15:10:14.053Z,101093.72
2023-04-18T15:15:28.268Z,101103.06
2023-04-18T15:17:57.300Z,101101.69
2023-04-18T15:20:25.207Z,101103.09
2023-04-18T15:22:53.148Z,101107.94
2023-04-18T15:25:22.074Z,101101.28
2023-04-18T15:27:51.018Z,101109.38
2023-04-18T15:30:19.571Z,101108.59
2023-04-18T15:32:48.874Z,101109.16
2023-04-18T15:35:18.636Z,101099.13
2023-04-18T15:37:46.620Z,101105.03
2023-04-18T15:40:19.441Z,101103.53
2023-04-18T15:42:51.383Z,101102.50
2023-04-18T15:45:32.239Z,101101.44
2023-04-18T15:48:13.549Z,101100.56
2023-04-18T15:50:42.654Z,101084.31
2023-04-18T15:53:10.704Z,101093.28
2023-04-18T15:55:38.540Z,101103.28
2023-04-18T15:58:06.896Z,101101.34
2023-04-18T16:00:59.371Z,101109.16
2023-04-18T16:03:28.216Z,101110.59
2023-04-18T16:06:10.482Z,101098.75
2023-04-18T16:08:38.997Z,101105.91
2023-04-18T16:11:10.192Z,101111.25
2023-04-18T16:13:38.531Z,101110.03
2023-04-18T16:16:06.746Z,101110.84
2023-04-18T16:18:35.114Z,101123.72
2023-04-18T16:21:03.508Z,101114.16
2023-04-18T16:23:43.784Z,101112.13
2023-04-18T16:26:12.182Z,101118.59
2023-04-18T16:28:52.481Z,101110.66
2023-04-18T16:31:34.497Z,101108.81
2023-04-18T16:34:07.914Z,101109.22
2023-04-18T16:36:45.182Z,101109.66
2023-04-18T16:39:25.603Z,101115.97
2023-04-18T16:41:54.859Z,101114.09
2023-04-18T16:44:22.787Z,101119.25
2023-04-18T16:47:05.289Z,101123.91
2023-04-18T16:49:33.904Z,101129.69
2023-04-18T16:52:02.230Z,101123.56
2023-04-18T16:54:30.590Z,101129.50
2023-04-18T16:57:00.202Z,101134.47
2023-04-18T16:59:29.159Z,101136.13
2023-04-18T17:01:57.208Z,101131.03
2023-04-18T17:04:27.352Z,101138.97
2023-04-18T17:06:58.464Z,101132.09
2023-04-18T17:09:42.472Z,101142.72
2023-04-18T17:12:10.558Z,101145.94
2023-04-18T17:14:39.657Z,101148.47
2023-04-18T17:17:07.697Z,101142.56
2023-04-18T17:19:36.440Z,101145.75
2023-04-18T17:22:04.621Z,101142.72
2023-04-18T17:24:32.645Z,101148.66
2023-04-18T17:27:01.521Z,101124.94
2023-04-18T17:29:29.876Z,101152.66
2023-04-18T17:31:58.080Z,101147.69
2023-04-18T17:34:26.238Z,101149.69
2023-04-18T17:36:54.550Z,101150.19
2023-04-18T17:39:22.926Z,101152.81
2023-04-18T17:41:51.206Z,101164.53
2023-04-18T17:44:19.429Z,101162.97
2023-04-18T17:46:48.856Z,101155.00
2023-04-18T17:49:18.027Z,101158.13
2023-04-18T17:51:46.222Z,101158.97
2023-04-18T17:54:14.774Z,101160.28
2023-04-18T17:56:42.659Z,101155.13
2023-04-18T17:59:11.392Z,101161.06
2023-04-18T18:01:40.299Z,101171.78
2023-04-18T18:04:08.586Z,101158.84
2023-04-18T18:06:36.547Z,101171.19
2023-04-18T18:09:04.682Z,101169.37
2023-04-18T18:11:33.105Z,101163.41
2023-04-18T18:14:01.155Z,101165.63
2023-04-18T18:16:29.997Z,101169.00
2023-04-18T18:18:58.990Z,101162.63
2023-04-18T18:21:50.408Z,101171.16
2023-04-18T18:24:25.910Z,101172.53
2023-04-18T18:26:55.369Z,101169.50
2023-04-18T18:29:24.451Z,101167.12
2023-04-18T18:31:52.483Z,101163.00
2023-04-18T18:37:07.709Z,101167.09
2023-04-18T18:39:36.977Z,101170.81
2023-04-18T18:42:05.011Z,101159.25
2023-04-18T18:44:34.140Z,101159.09
2023-04-18T18:47:02.081Z,101159.97
2023-04-18T18:49:29.937Z,101161.50
2023-04-18T18:51:58.232Z,101162.28
2023-04-18T18:54:26.399Z,101167.31
2023-04-18T18:56:54.515Z,101163.03
2023-04-18T18:59:22.902Z,101162.03
2023-04-18T19:01:51.295Z,101156.63
2023-04-18T19:04:20.668Z,101159.34
2023-04-18T19:06:51.870Z,101164.19
2023-04-18T19:09:20.933Z,101164.34
2023-04-18T19:11:49.332Z,101164.28
2023-04-18T19:14:17.318Z,101153.66
2023-04-18T19:16:46.307Z,101157.12
2023-04-18T19:19:15.915Z,101162.47
2023-04-18T19:21:46.275Z,101158.66
2023-04-18T19:24:14.952Z,101152.09
2023-04-18T19:26:46.032Z,101153.69
2023-04-18T19:29:14.711Z,101157.66
2023-04-18T19:31:44.043Z,101150.97
2023-04-18T19:34:13.789Z,101149.37
2023-04-18T19:36:42.192Z,101142.84
2023-04-18T19:39:10.137Z,101135.56
2023-04-18T19:41:38.192Z,101140.91
2023-04-18T19:44:06.456Z,101142.22
2023-04-18T19:46:34.423Z,101153.16
2023-04-18T19:49:02.385Z,101161.50
2023-04-18T19:51:31.575Z,101146.22
2023-04-18T19:53:59.591Z,101155.47
2023-04-18T19:56:27.277Z,101152.53
2023-04-18T19:58:55.655Z,101160.41
2023-04-18T20:01:24.464Z,101164.09
2023-04-18T20:03:58.925Z,101164.28
2023-04-18T20:06:27.154Z,101165.19
2023-04-18T20:08:55.662Z,101175.63
2023-04-18T20:11:53.876Z,101170.06
2023-04-18T20:14:22.072Z,101175.19
2023-04-18T20:17:02.329Z,101184.97
2023-04-18T20:19:30.855Z,101181.03
2023-04-18T20:22:01.388Z,101182.87
2023-04-18T20:24:32.227Z,101182.87
2023-04-18T20:27:04.649Z,101181.09
2023-04-18T20:29:32.729Z,101180.16
2023-04-18T20:32:13.727Z,101175.81
2023-04-18T20:34:41.699Z,101178.84
2023-04-18T20:37:10.466Z,101176.25
2023-04-18T20:39:40.302Z,101188.75
2023-04-18T20:42:14.749Z,101182.84
2023-04-18T20:44:44.484Z,101190.97
2023-04-18T20:47:14.729Z,101184.97
2023-04-18T20:49:48.193Z,101186.56
2023-04-18T20:52:16.143Z,101184.12
2023-04-18T20:54:44.171Z,101190.66
2023-04-18T20:57:24.482Z,101192.84
2023-04-18T20:59:52.656Z,101195.12
2023-04-18T21:02:21.029Z,101190.78
2023-04-18T21:04:49.648Z,101189.66
2023-04-18T21:07:17.937Z,101192.75
2023-04-18T21:09:45.823Z,101194.25
2023-04-18T21:12:14.136Z,101191.16
2023-04-18T21:14:42.201Z,101190.69
2023-04-18T21:17:10.838Z,101195.78
2023-04-18T21:19:57.827Z,101193.16
2023-04-18T21:22:37.828Z,101194.97
2023-04-18T21:25:07.707Z,101190.22
2023-04-18T21:27:47.468Z,101199.72
2023-04-18T21:30:16.196Z,101196.91
2023-04-18T21:32:56.354Z,101201.88
2023-04-18T21:35:37.013Z,101198.31
2023-04-18T21:38:05.204Z,101184.81
2023-04-18T21:40:52.244Z,101197.28
2023-04-18T21:43:20.245Z,101200.03
2023-04-18T21:45:48.567Z,101205.47
2023-04-18T21:48:28.603Z,101200.16
2023-04-18T21:51:13.855Z,101201.06
2023-04-18T21:53:53.945Z,101198.34
2023-04-18T21:56:22.173Z,101209.63
2023-04-18T21:59:02.188Z,101201.75
2023-04-18T22:01:42.199Z,101209.63
2023-04-18T22:04:12.745Z,101205.59
2023-04-18T22:06:41.831Z,101205.97
2023-04-18T22:09:10.075Z,101207.09
2023-04-18T22:11:38.688Z,101195.69
2023-04-18T22:14:20.255Z,101202.09
2023-04-18T22:16:50.348Z,101206.00
2023-04-18T22:19:19.541Z,101179.13
2023-04-18T22:21:47.468Z,101166.66
2023-04-18T22:24:15.599Z,101199.78
2023-04-18T22:27:11.947Z,101193.13
2023-04-18T22:29:39.867Z,101180.62
2023-04-18T22:32:08.123Z,101191.22
2023-04-18T22:34:48.124Z,101190.63
2023-04-18T22:37:16.653Z,101199.97
2023-04-18T22:39:45.174Z,101186.28
2023-04-18T22:42:12.950Z,101192.94
2023-04-18T22:44:41.308Z,101199.16
2023-04-18T22:47:09.273Z,101198.91
2023-04-18T22:49:37.225Z,101192.69
2023-04-18T22:52:06.499Z,101199.87
2023-04-18T22:54:38.781Z,101200.44
2023-04-18T22:57:07.365Z,101192.09
2023-04-18T22:59:35.580Z,101196.00
2023-04-18T23:02:03.621Z,101192.69
2023-04-18T23:04:33.155Z,101197.03
2023-04-18T23:07:01.211Z,101193.28
2023-04-18T23:09:31.500Z,101191.97
2023-04-18T23:11:59.712Z,101187.84
2023-04-18T23:14:27.876Z,101192.50
2023-04-18T23:16:55.948Z,101193.19
2023-04-18T23:19:24.173Z,101181.44
2023-04-18T23:21:52.105Z,101189.37
2023-04-18T23:24:19.959Z,101189.19
2023-04-18T23:26:48.246Z,101199.66
2023-04-18T23:29:16.221Z,101197.62
2023-04-18T23:31:44.148Z,101195.50
2023-04-18T23:34:12.561Z,101169.06
2023-04-18T23:36:40.866Z,101177.66
2023-04-18T23:39:09.147Z,101190.13
2023-04-18T23:41:37.535Z,101180.25
2023-04-18T23:44:06.037Z,101190.84
2023-04-18T23:46:36.225Z,101189.22
2023-04-18T23:49:05.069Z,101187.00
2023-04-18T23:51:32.838Z,101185.78
2023-04-18T23:54:00.617Z,101184.12
2023-04-18T23:56:30.000Z,101187.97
2023-04-18T23:58:58.339Z,101188.56
